Time;durP1;ratioP1;P1;durP2;ratioP2;P2;SDS_P1;SDS_P2;PMS_P1;PMS_P2;Temp;Humidity;BMP_temperature;BMP_pressure;BME280_temperature;BME280_humidity;BME280_pressure;Samples;Min_cycle;Max_cycle;Signal;HPM_P1;HPM_P2
2023/09/13 00:00:23;;;;;;;11.23;4.20;;;24.60;81.30;;;;;;5049420;28;20060;-56
2023/09/13 00:02:49;;;;;;;14.90;3.80;;;24.60;81.40;;;;;;5049448;28;20036;-56
2023/09/13 00:05:14;;;;;;;10.15;3.90;;;24.60;81.50;;;;;;5053841;28;20103;-56
2023/09/13 00:07:40;;;;;;;9.35;3.30;;;24.60;81.50;;;;;;5069296;28;20044;-56
2023/09/13 00:10:06;;;;;;;9.13;3.50;;;24.60;81.60;;;;;;5069272;28;20060;-56
2023/09/13 00:12:32;;;;;;;11.50;4.00;;;24.60;81.70;;;;;;5080951;28;20047;-56
2023/09/13 00:14:57;;;;;;;8.88;3.55;;;24.60;81.80;;;;;;5067042;28;20451;-56
2023/09/13 00:17:23;;;;;;;9.00;3.53;;;24.50;81.80;;;;;;5066768;28;20476;-56
2023/09/13 00:19:49;;;;;;;7.22;3.20;;;24.50;81.80;;;;;;5072882;28;20020;-56
2023/09/13 00:22:14;;;;;;;12.10;3.63;;;24.50;81.90;;;;;;5068841;28;20043;-56
2023/09/13 00:24:40;;;;;;;9.48;3.55;;;24.50;81.90;;;;;;5068923;28;20058;-56
2023/09/13 00:27:05;;;;;;;7.82;3.97;;;24.50;82.00;;;;;;5079136;28;20037;-56
2023/09/13 00:29:33;;;;;;;10.88;3.72;;;24.50;82.00;;;;;;5032171;28;20127;-56
2023/09/13 00:32:00;;;;;;;6.60;3.42;;;24.50;82.00;;;;;;5065685;28;20068;-56
2023/09/13 00:34:26;;;;;;;7.05;2.92;;;24.50;82.10;;;;;;5034101;28;20040;-56
2023/09/13 00:36:51;;;;;;;5.63;3.15;;;24.40;82.10;;;;;;5068738;28;20089;-56
2023/09/13 00:39:17;;;;;;;3.63;2.85;;;24.40;82.20;;;;;;5068634;28;20090;-56
2023/09/13 00:41:42;;;;;;;9.40;3.60;;;24.40;82.30;;;;;;5067224;28;20032;-56
2023/09/13 00:44:08;;;;;;;7.85;3.33;;;24.40;82.30;;;;;;5068399;28;20037;-56
2023/09/13 00:46:33;;;;;;;5.75;3.28;;;24.40;82.30;;;;;;5086254;28;20045;-57
2023/09/13 00:48:59;;;;;;;6.47;3.08;;;24.40;82.30;;;;;;5067203;28;20052;-56
2023/09/13 00:51:24;;;;;;;6.82;3.10;;;24.40;82.40;;;;;;5051874;28;20090;-56
2023/09/13 00:53:50;;;;;;;9.00;3.17;;;24.40;82.40;;;;;;5035312;28;20043;-56
2023/09/13 00:56:16;;;;;;;9.60;3.28;;;24.40;82.40;;;;;;5067115;28;20040;-56
2023/09/13 00:58:42;;;;;;;5.47;2.85;;;24.30;82.40;;;;;;5068313;28;20048;-56
2023/09/13 01:01:09;;;;;;;8.32;3.33;;;24.30;82.50;;;;;;5051771;28;20032;-56
2023/09/13 01:03:34;;;;;;;6.50;3.42;;;24.30;82.50;;;;;;5051072;28;20044;-56
2023/09/13 01:06:00;;;;;;;9.73;3.15;;;24.20;82.50;;;;;;5068875;28;20041;-56
2023/09/13 01:08:26;;;;;;;8.60;3.20;;;24.20;82.60;;;;;;5069043;28;20071;-57
2023/09/13 01:10:51;;;;;;;6.22;3.40;;;24.20;83.30;;;;;;5066897;28;20066;-56
2023/09/13 01:13:17;;;;;;;7.70;2.95;;;24.20;83.40;;;;;;5068174;28;20036;-58
2023/09/13 01:15:56;;;;;;;7.75;3.47;;;24.20;82.70;;;;;;5068171;28;20036;-56
2023/09/13 01:18:27;;;;;;;6.90;2.92;;;24.20;82.70;;;;;;5066858;28;20037;-56
2023/09/13 01:21:32;;;;;;;5.90;3.10;;;24.20;82.80;;;;;;5052135;28;20024;-56
2023/09/13 01:24:13;;;;;;;7.07;2.90;;;24.20;82.80;;;;;;5002789;28;20029;-56
2023/09/13 01:27:03;;;;;;;3.72;2.70;;;24.10;82.90;;;;;;5047986;28;20072;-56
2023/09/13 01:29:28;;;;;;;6.60;3.00;;;24.10;82.90;;;;;;5048036;28;20040;-56
2023/09/13 01:31:54;;;;;;;5.75;3.03;;;24.10;83.00;;;;;;5071551;28;20041;-56
2023/09/13 01:34:19;;;;;;;6.03;2.90;;;24.10;83.00;;;;;;5034970;28;20036;-56
2023/09/13 01:36:45;;;;;;;5.53;2.75;;;24.10;83.10;;;;;;5085724;28;20036;-55
2023/09/13 01:39:10;;;;;;;6.22;3.00;;;24.10;83.10;;;;;;5049993;28;20048;-56
2023/09/13 01:41:45;;;;;;;4.43;2.72;;;24.10;83.10;;;;;;5051437;28;20029;-56
2023/09/13 01:44:11;;;;;;;4.82;2.78;;;24.10;83.10;;;;;;5050483;28;20040;-56
2023/09/13 01:46:40;;;;;;;4.90;2.92;;;24.10;83.30;;;;;;5068171;28;20075;-56
2023/09/13 01:49:05;;;;;;;4.78;2.85;;;24.00;83.30;;;;;;5055184;28;20078;-56
2023/09/13 01:51:31;;;;;;;5.80;2.78;;;24.00;83.40;;;;;;5055270;28;20028;-52
2023/09/13 01:53:56;;;;;;;8.68;3.28;;;24.00;83.50;;;;;;5070501;28;20079;-52
2023/09/13 01:56:22;;;;;;;4.03;3.08;;;24.00;83.60;;;;;;5089546;28;20045;-52
2023/09/13 01:58:48;;;;;;;5.88;2.70;;;24.00;83.60;;;;;;5071822;28;20029;-52
2023/09/13 02:01:14;;;;;;;5.65;2.70;;;24.00;83.70;;;;;;5070639;28;20070;-52
2023/09/13 02:03:40;;;;;;;4.97;3.00;;;24.00;83.80;;;;;;5070416;28;20047;-52
2023/09/13 02:06:05;;;;;;;5.35;3.17;;;23.90;83.70;;;;;;5089595;28;20037;-52
2023/09/13 02:08:32;;;;;;;4.20;3.10;;;23.90;83.80;;;;;;5069087;28;20078;-52
2023/09/13 02:10:57;;;;;;;4.15;3.00;;;23.90;83.90;;;;;;5089560;28;20040;-52
2023/09/13 02:13:23;;;;;;;5.00;3.00;;;23.90;83.90;;;;;;5071728;28;20037;-52
2023/09/13 02:15:48;;;;;;;12.63;3.20;;;23.80;83.90;;;;;;5070157;28;20109;-52
2023/09/13 02:18:14;;;;;;;6.70;2.83;;;23.80;84.00;;;;;;5071440;28;20032;-52
2023/09/13 02:20:40;;;;;;;4.28;3.03;;;23.80;84.00;;;;;;5071413;28;20448;-52
2023/09/13 02:23:05;;;;;;;8.43;3.20;;;23.80;84.10;;;;;;5070107;28;20040;-52
2023/09/13 02:25:36;;;;;;;6.68;3.80;;;23.80;84.10;;;;;;5069998;28;20036;-52
2023/09/13 02:28:02;;;;;;;5.95;4.20;;;23.80;84.10;;;;;;5071516;28;20091;-52
2023/09/13 02:30:27;;;;;;;5.40;4.15;;;23.80;84.20;;;;;;5053415;28;20044;-56
2023/09/13 02:32:53;;;;;;;5.38;4.13;;;23.80;84.20;;;;;;5087633;28;20476;-56
2023/09/13 02:35:18;;;;;;;9.15;4.38;;;23.80;84.40;;;;;;5070977;28;20063;-56
2023/09/13 02:37:44;;;;;;;9.73;3.85;;;23.70;84.40;;;;;;5087259;28;20052;-56
2023/09/13 02:40:10;;;;;;;8.15;4.25;;;23.80;84.50;;;;;;5070868;28;20037;-56
2023/09/13 02:42:37;;;;;;;7.85;3.92;;;23.70;84.50;;;;;;5070907;28;20036;-56
2023/09/13 02:45:03;;;;;;;6.50;3.53;;;23.70;84.50;;;;;;5087681;28;20392;-56
2023/09/13 02:47:28;;;;;;;5.78;4.00;;;23.70;84.60;;;;;;5088943;28;20041;-56
2023/09/13 02:49:54;;;;;;;5.82;4.13;;;23.70;84.70;;;;;;5088686;28;20067;-56
2023/09/13 02:52:32;;;;;;;5.70;4.43;;;23.60;84.70;;;;;;5087247;28;20046;-56
2023/09/13 02:54:58;;;;;;;6.15;4.40;;;23.70;84.80;;;;;;5088478;28;20043;-56
2023/09/13 02:57:24;;;;;;;5.28;4.35;;;23.60;84.70;;;;;;5069810;28;20036;-56
2023/09/13 02:59:49;;;;;;;6.72;4.05;;;23.70;84.80;;;;;;5069198;28;20389;-56
2023/09/13 03:02:15;;;;;;;6.72;3.97;;;23.60;84.90;;;;;;5068999;28;20063;-56
2023/09/13 03:04:40;;;;;;;7.93;4.43;;;23.60;84.90;;;;;;5069556;28;20039;-56
2023/09/13 03:07:07;;;;;;;5.38;4.35;;;23.60;85.00;;;;;;5086129;28;20104;-56
2023/09/13 03:09:33;;;;;;;8.18;4.43;;;23.60;85.00;;;;;;5053571;28;20480;-56
2023/09/13 03:11:58;;;;;;;4.28;3.50;;;23.60;85.10;;;;;;5070343;28;20037;-56
2023/09/13 03:14:24;;;;;;;6.75;4.20;;;23.60;85.10;;;;;;5087035;28;20037;-56
2023/09/13 03:16:49;;;;;;;5.75;4.07;;;23.60;85.10;;;;;;5070194;28;20415;-56
2023/09/13 03:19:15;;;;;;;8.88;4.45;;;23.50;85.10;;;;;;5088436;28;20090;-56
2023/09/13 03:21:44;;;;;;;8.75;3.72;;;23.50;85.20;;;;;;5069229;28;20040;-56
2023/09/13 03:24:09;;;;;;;8.32;3.80;;;23.60;85.30;;;;;;5070353;28;20116;-56
2023/09/13 03:26:35;;;;;;;6.38;3.70;;;23.50;85.40;;;;;;5052059;28;20037;-57
2023/09/13 03:29:00;;;;;;;6.20;3.97;;;23.50;85.50;;;;;;5069868;28;20029;-56
2023/09/13 03:31:26;;;;;;;5.40;3.72;;;23.50;85.60;;;;;;5088056;28;20034;-56
2023/09/13 03:33:54;;;;;;;8.52;4.18;;;23.50;85.70;;;;;;5086436;28;20435;-56
2023/09/13 03:36:19;;;;;;;6.03;4.13;;;23.50;85.80;;;;;;5053350;28;20060;-56
2023/09/13 03:38:46;;;;;;;7.05;3.95;;;23.50;85.90;;;;;;5053158;28;20029;-56
2023/09/13 03:41:16;;;;;;;6.88;3.75;;;23.50;85.90;;;;;;5068762;28;20039;-56
2023/09/13 03:43:41;;;;;;;24.02;5.22;;;23.40;85.90;;;;;;5069484;28;20040;-56
2023/09/13 03:46:07;;;;;;;5.88;3.78;;;23.40;86.00;;;;;;5053206;28;20040;-56
2023/09/13 03:48:33;;;;;;;6.63;3.80;;;23.40;85.90;;;;;;5068150;28;20052;-56
2023/09/13 03:50:59;;;;;;;3.92;3.63;;;23.40;85.90;;;;;;5036506;28;20047;-56
2023/09/13 03:53:25;;;;;;;5.38;3.60;;;23.40;86.10;;;;;;5052920;28;20041;-56
2023/09/13 03:55:51;;;;;;;8.10;3.45;;;23.40;86.10;;;;;;5086103;28;20029;-52
2023/09/13 03:58:17;;;;;;;4.45;3.50;;;23.40;86.30;;;;;;5069489;28;20071;-52
2023/09/13 04:00:42;;;;;;;9.68;3.92;;;23.40;86.30;;;;;;5087338;28;20040;-52
2023/09/13 04:03:08;;;;;;;8.05;3.92;;;23.30;86.30;;;;;;5051464;28;20037;-50
2023/09/13 04:05:33;;;;;;;13.43;4.43;;;23.30;86.40;;;;;;5052824;28;20044;-52
2023/09/13 04:07:59;;;;;;;6.25;4.40;;;23.30;86.40;;;;;;5052413;28;20040;-52
2023/09/13 04:10:24;;;;;;;12.63;4.20;;;23.30;86.50;;;;;;5063881;28;20349;-52
2023/09/13 04:12:50;;;;;;;7.22;4.00;;;23.30;86.50;;;;;;5065873;28;20485;-52
2023/09/13 04:15:16;;;;;;;10.13;4.70;;;23.30;86.60;;;;;;5065853;28;20041;-52
2023/09/13 04:17:41;;;;;;;6.22;3.95;;;23.30;86.50;;;;;;5067926;28;20043;-52
2023/09/13 04:20:08;;;;;;;12.52;4.10;;;23.30;86.60;;;;;;5068860;28;20078;-52
2023/09/13 04:22:33;;;;;;;8.02;4.10;;;23.30;86.70;;;;;;5086709;28;20021;-52
2023/09/13 04:24:59;;;;;;;11.05;4.18;;;23.20;86.60;;;;;;5085946;28;20431;-51
2023/09/13 04:27:24;;;;;;;10.45;4.38;;;23.20;86.70;;;;;;5084392;28;20079;-52
2023/09/13 04:29:50;;;;;;;7.05;4.22;;;23.30;86.70;;;;;;5065612;28;20037;-52
2023/09/13 04:32:16;;;;;;;29.35;5.75;;;23.30;86.80;;;;;;5053337;28;20476;-52
2023/09/13 04:34:41;;;;;;;15.75;4.93;;;23.20;86.80;;;;;;5068790;28;20456;-52
2023/09/13 04:37:07;;;;;;;18.83;5.38;;;23.20;86.90;;;;;;5064332;28;20564;-52
2023/09/13 04:39:33;;;;;;;33.45;8.30;;;23.20;86.90;;;;;;5061427;28;20040;-52
2023/09/13 04:41:58;;;;;;;41.55;8.77;;;23.20;86.90;;;;;;5048760;28;20029;-52
2023/09/13 04:44:25;;;;;;;45.65;9.18;;;23.20;86.90;;;;;;5048698;28;20100;-52
2023/09/13 04:46:51;;;;;;;32.67;7.47;;;23.20;87.00;;;;;;5054011;28;20048;-52
2023/09/13 04:49:17;;;;;;;26.45;6.95;;;23.30;87.10;;;;;;5051098;28;20059;-52
2023/09/13 04:51:43;;;;;;;47.50;8.68;;;23.20;87.10;;;;;;5068517;28;20041;-52
2023/09/13 04:54:08;;;;;;;22.83;6.60;;;23.20;87.20;;;;;;5084441;28;20036;-52
2023/09/13 04:56:34;;;;;;;28.80;7.38;;;23.20;87.20;;;;;;5068290;28;20040;-52
2023/09/13 04:58:59;;;;;;;27.02;7.53;;;23.20;87.30;;;;;;5051497;28;20064;-52
2023/09/13 05:01:25;;;;;;;30.13;7.45;;;23.20;87.40;;;;;;5066949;28;20033;-52
2023/09/13 05:03:52;;;;;;;21.95;7.30;;;23.20;87.50;;;;;;5086232;28;20032;-52
2023/09/13 05:06:18;;;;;;;33.03;7.20;;;23.20;87.50;;;;;;5068445;28;20036;-53
2023/09/13 05:08:43;;;;;;;37.95;8.50;;;23.20;87.50;;;;;;5084772;28;20040;-52
2023/09/13 05:11:09;;;;;;;37.97;7.55;;;23.10;87.50;;;;;;5086213;28;20044;-52
2023/09/13 05:13:37;;;;;;;24.70;8.10;;;23.10;87.60;;;;;;5086149;28;20040;-52
2023/09/13 05:16:02;;;;;;;27.23;7.43;;;23.10;87.70;;;;;;5084966;28;20041;-52
2023/09/13 05:18:28;;;;;;;29.50;7.93;;;23.10;87.70;;;;;;5066701;28;20447;-52
2023/09/13 05:20:53;;;;;;;34.33;7.10;;;23.10;87.90;;;;;;5046316;28;20543;-52
2023/09/13 05:23:19;;;;;;;27.88;7.38;;;23.10;87.90;;;;;;5070251;28;20033;-53
2023/09/13 05:25:45;;;;;;;27.45;7.68;;;23.10;87.90;;;;;;5066070;28;20309;-53
2023/09/13 05:28:12;;;;;;;25.50;7.10;;;23.10;88.00;;;;;;5050564;28;20043;-53
2023/09/13 05:30:39;;;;;;;33.47;7.75;;;23.10;88.60;;;;;;5066756;28;20043;-53
2023/09/13 05:33:05;;;;;;;26.23;7.57;;;23.10;88.20;;;;;;5086207;28;20040;-53
2023/09/13 05:35:31;;;;;;;39.35;7.95;;;23.00;88.30;;;;;;5051515;28;20094;-53
2023/09/13 05:37:57;;;;;;;32.15;8.45;;;23.00;88.30;;;;;;5049918;28;20041;-53
2023/09/13 05:40:23;;;;;;;28.75;7.72;;;23.00;88.30;;;;;;5051320;28;20033;-53
2023/09/13 05:42:49;;;;;;;42.00;8.80;;;23.00;88.20;;;;;;5068032;28;20024;-53
2023/09/13 05:45:14;;;;;;;77.03;11.45;;;23.00;88.60;;;;;;5066147;28;20036;-52
2023/09/13 05:47:40;;;;;;;59.28;9.02;;;23.00;88.70;;;;;;5067185;28;20052;-52
2023/09/13 05:50:06;;;;;;;51.53;8.63;;;23.00;88.70;;;;;;5067707;28;20032;-53
2023/09/13 05:52:33;;;;;;;46.30;9.00;;;23.00;88.90;;;;;;5066837;28;20047;-53
2023/09/13 05:54:58;;;;;;;31.45;8.30;;;23.00;88.90;;;;;;5051628;28;20064;-53
2023/09/13 05:57:24;;;;;;;36.13;7.85;;;23.00;88.90;;;;;;5051237;28;20039;-52
2023/09/13 05:59:50;;;;;;;24.13;7.03;;;23.00;89.00;;;;;;5066209;28;20039;-53
2023/09/13 06:02:15;;;;;;;24.50;7.00;;;23.00;89.40;;;;;;5066890;28;20032;-52
2023/09/13 06:04:41;;;;;;;26.17;6.72;;;23.00;89.60;;;;;;5066191;28;20040;-53
2023/09/13 06:07:07;;;;;;;23.00;6.75;;;23.00;90.20;;;;;;5066719;28;20116;-53
2023/09/13 06:09:33;;;;;;;19.40;6.03;;;23.00;90.50;;;;;;5084911;28;20041;-52
2023/09/13 06:12:01;;;;;;;22.00;6.00;;;22.90;90.70;;;;;;5085350;28;20052;-52
2023/09/13 06:14:27;;;;;;;13.82;5.15;;;22.80;90.90;;;;;;5051692;28;20041;-53
2023/09/13 06:16:53;;;;;;;16.50;6.13;;;22.80;91.10;;;;;;5081443;28;20048;-54
2023/09/13 06:19:18;;;;;;;13.90;5.40;;;22.80;91.20;;;;;;5048077;28;20033;-52
2023/09/13 06:21:44;;;;;;;18.85;5.32;;;22.70;91.40;;;;;;5082943;28;20061;-53
2023/09/13 06:24:09;;;;;;;16.20;5.28;;;22.70;91.60;;;;;;5080388;28;20040;-53
2023/09/13 06:26:35;;;;;;;16.27;5.25;;;22.70;91.70;;;;;;5083119;28;20043;-53
2023/09/13 06:29:01;;;;;;;18.98;5.38;;;22.70;91.90;;;;;;5066335;28;20043;-53
2023/09/13 06:31:27;;;;;;;17.88;4.68;;;22.60;92.00;;;;;;5065946;28;20397;-53
2023/09/13 06:33:53;;;;;;;19.95;5.68;;;22.60;92.10;;;;;;5049100;28;20128;-53
2023/09/13 06:36:19;;;;;;;28.98;6.55;;;22.60;92.20;;;;;;5066509;28;20025;-53
2023/09/13 06:38:44;;;;;;;17.42;4.47;;;22.60;92.30;;;;;;5069064;28;20039;-53
2023/09/13 06:41:10;;;;;;;18.05;5.13;;;22.60;92.50;;;;;;5069664;28;20052;-52
2023/09/13 06:43:36;;;;;;;14.70;4.30;;;22.50;92.40;;;;;;5066924;28;20033;-53
2023/09/13 06:46:03;;;;;;;13.82;4.97;;;22.60;92.40;;;;;;5054334;28;20077;-53
2023/09/13 06:48:28;;;;;;;25.90;6.13;;;22.60;92.40;;;;;;5080711;28;20103;-53
2023/09/13 06:50:55;;;;;;;45.90;7.55;;;22.60;92.70;;;;;;5066090;28;20476;-52
2023/09/13 06:53:20;;;;;;;33.47;6.95;;;22.60;92.80;;;;;;5063574;28;20090;-52
2023/09/13 06:55:46;;;;;;;32.97;6.28;;;22.60;93.10;;;;;;5064230;28;20063;-53
2023/09/13 06:58:12;;;;;;;41.95;7.35;;;22.60;93.10;;;;;;5067498;28;20044;-53
2023/09/13 07:00:39;;;;;;;28.73;6.20;;;22.60;93.00;;;;;;5061309;28;20036;-53
2023/09/13 07:03:05;;;;;;;29.83;5.78;;;22.60;93.20;;;;;;5083430;28;20044;-53
2023/09/13 07:05:30;;;;;;;20.60;4.82;;;22.60;93.10;;;;;;5057266;28;21211;-53
2023/09/13 07:07:56;;;;;;;25.80;4.78;;;22.60;93.00;;;;;;5045736;28;20569;-53
2023/09/13 07:10:21;;;;;;;15.13;4.78;;;22.60;92.90;;;;;;5061096;28;20043;-53
2023/09/13 07:12:47;;;;;;;24.33;5.60;;;22.60;92.80;;;;;;5044010;28;20481;-53
2023/09/13 07:15:12;;;;;;;33.05;6.10;;;22.60;92.80;;;;;;5083470;28;20119;-53
2023/09/13 07:17:38;;;;;;;22.70;5.70;;;22.60;92.80;;;;;;5083665;28;20044;-53
2023/09/13 07:20:05;;;;;;;19.38;5.80;;;22.70;92.80;;;;;;5085739;28;20060;-53
2023/09/13 07:22:31;;;;;;;31.77;6.93;;;22.60;92.80;;;;;;5079109;28;20090;-53
2023/09/13 07:24:57;;;;;;;25.58;6.40;;;22.60;92.90;;;;;;5044059;28;20485;-53
2023/09/13 07:27:22;;;;;;;25.35;5.88;;;22.60;92.90;;;;;;5076032;28;20037;-53
2023/09/13 07:29:49;;;;;;;26.20;6.30;;;22.60;92.90;;;;;;5078784;28;20032;-53
2023/09/13 07:32:16;;;;;;;22.05;6.35;;;22.60;92.90;;;;;;5076732;28;20059;-53
2023/09/13 07:34:42;;;;;;;39.95;8.63;;;22.60;93.10;;;;;;5056294;28;20040;-53
2023/09/13 07:37:07;;;;;;;51.75;8.75;;;22.60;93.30;;;;;;5058441;28;20045;-53
2023/09/13 07:39:33;;;;;;;46.20;7.30;;;22.60;93.50;;;;;;5058748;28;20124;-53
2023/09/13 07:41:59;;;;;;;33.83;8.18;;;22.60;93.50;;;;;;5063807;28;20623;-53
2023/09/13 07:44:24;;;;;;;50.83;9.27;;;22.60;93.60;;;;;;5082022;28;20037;-53
2023/09/13 07:46:50;;;;;;;53.22;9.15;;;22.60;93.80;;;;;;5057579;28;20066;-53
2023/09/13 07:49:16;;;;;;;51.45;9.02;;;22.60;93.70;;;;;;5076156;28;20033;-52
2023/09/13 07:51:42;;;;;;;47.00;8.70;;;22.70;93.70;;;;;;5074525;28;20066;-53
2023/09/13 07:54:07;;;;;;;63.50;11.15;;;22.60;93.70;;;;;;5078933;28;20041;-53
2023/09/13 07:56:34;;;;;;;55.40;9.93;;;22.70;94.00;;;;;;5048281;28;20040;-53
2023/09/13 07:58:59;;;;;;;55.90;9.73;;;22.70;94.00;;;;;;5080308;28;20098;-54
2023/09/13 08:01:25;;;;;;;66.00;9.30;;;22.70;93.70;;;;;;5077370;28;20048;-53
2023/09/13 08:03:51;;;;;;;43.08;9.07;;;22.70;93.60;;;;;;5057476;28;20043;-53
2023/09/13 08:06:16;;;;;;;59.92;9.98;;;22.70;93.80;;;;;;5057979;28;20686;-53
2023/09/13 08:08:42;;;;;;;43.28;9.45;;;22.70;93.70;;;;;;5056435;28;20067;-53
2023/09/13 08:11:07;;;;;;;50.95;8.75;;;22.70;94.00;;;;;;5054610;28;20128;-53
2023/09/13 08:13:33;;;;;;;45.40;8.43;;;22.70;93.90;;;;;;5074261;28;20040;-53
2023/09/13 08:15:58;;;;;;;33.25;7.45;;;22.70;93.90;;;;;;5055071;28;20048;-53
2023/09/13 08:18:24;;;;;;;36.88;8.27;;;22.70;93.70;;;;;;5062255;28;20044;-53
2023/09/13 08:20:50;;;;;;;45.67;8.88;;;22.70;93.70;;;;;;5059774;28;20120;-53
2023/09/13 08:23:16;;;;;;;37.00;8.15;;;22.70;93.50;;;;;;5056438;28;20062;-53
2023/09/13 08:25:42;;;;;;;31.13;8.02;;;22.70;93.50;;;;;;5081031;28;20084;-53
2023/09/13 08:28:08;;;;;;;37.35;7.88;;;22.80;93.60;;;;;;5064131;28;20108;-53
2023/09/13 08:30:34;;;;;;;48.15;9.05;;;22.80;93.80;;;;;;5058875;28;20033;-53
2023/09/13 08:33:00;;;;;;;45.47;8.48;;;22.70;94.10;;;;;;5079789;28;20539;-53
2023/09/13 08:35:25;;;;;;;49.75;8.85;;;22.70;94.10;;;;;;5062635;28;20122;-53
2023/09/13 08:37:51;;;;;;;35.35;7.18;;;22.70;94.20;;;;;;5075490;28;20450;-53
2023/09/13 08:40:16;;;;;;;48.42;9.30;;;22.70;94.10;;;;;;5053891;28;20039;-53
2023/09/13 08:42:42;;;;;;;45.38;9.50;;;22.70;94.10;;;;;;5060659;28;20036;-53
2023/09/13 08:45:08;;;;;;;40.28;9.25;;;22.70;94.10;;;;;;5063433;28;20036;-53
2023/09/13 08:47:36;;;;;;;40.42;7.35;;;22.70;94.20;;;;;;5063546;28;20071;-53
2023/09/13 08:50:03;;;;;;;52.03;8.25;;;22.70;94.20;;;;;;5057012;28;20036;-53
2023/09/13 08:52:29;;;;;;;39.58;8.07;;;22.70;94.10;;;;;;5048191;28;20303;-53
2023/09/13 08:54:56;;;;;;;38.63;8.63;;;22.70;94.10;;;;;;5062718;28;20068;-53
2023/09/13 08:57:22;;;;;;;39.38;7.15;;;22.70;94.30;;;;;;5064762;28;20068;-53
2023/09/13 08:59:48;;;;;;;51.50;7.82;;;22.70;94.00;;;;;;5061883;28;20086;-53
2023/09/13 09:02:17;;;;;;;29.52;6.95;;;22.70;94.00;;;;;;5048567;28;20361;-53
2023/09/13 09:04:43;;;;;;;41.65;7.90;;;22.70;93.90;;;;;;5044764;28;20060;-53
2023/09/13 09:07:08;;;;;;;33.97;7.60;;;22.70;93.80;;;;;;5065340;28;20052;-53
2023/09/13 09:09:34;;;;;;;32.53;7.78;;;22.70;93.70;;;;;;5063701;28;20051;-53
2023/09/13 09:12:00;;;;;;;42.85;7.32;;;22.70;93.60;;;;;;5048000;28;20051;-53
2023/09/13 09:14:29;;;;;;;29.05;6.55;;;22.80;93.40;;;;;;5061989;28;20369;-53
2023/09/13 09:16:55;;;;;;;32.30;6.40;;;22.80;93.30;;;;;;5066135;28;20040;-53
2023/09/13 09:19:21;;;;;;;33.13;7.43;;;22.90;93.30;;;;;;5050558;28;20422;-53
2023/09/13 09:21:46;;;;;;;26.95;6.50;;;22.90;93.20;;;;;;5063954;28;20047;-53
2023/09/13 09:24:12;;;;;;;26.42;6.45;;;23.00;93.10;;;;;;5047208;28;20040;-53
2023/09/13 09:26:38;;;;;;;33.75;6.38;;;23.00;93.10;;;;;;5042995;28;20112;-53
2023/09/13 09:29:20;;;;;;;32.13;6.78;;;23.00;93.00;;;;;;5052608;28;20365;-53
2023/09/13 09:31:46;;;;;;;30.13;6.15;;;23.00;92.90;;;;;;5054123;28;20033;-53
2023/09/13 09:34:12;;;;;;;46.15;7.78;;;23.10;92.90;;;;;;5051410;28;20036;-54
2023/09/13 09:36:44;;;;;;;36.20;7.93;;;23.10;92.80;;;;;;5080223;28;20270;-53
2023/09/13 09:39:10;;;;;;;50.30;7.38;;;23.10;92.80;;;;;;5078193;28;20032;-54
2023/09/13 09:41:37;;;;;;;23.60;6.72;;;23.10;92.80;;;;;;5061960;28;20101;-53
2023/09/13 09:44:03;;;;;;;35.97;6.68;;;23.10;92.90;;;;;;5057530;28;20039;-53
2023/09/13 09:46:32;;;;;;;38.10;7.10;;;23.20;92.80;;;;;;5061322;28;20041;-53
2023/09/13 09:48:59;;;;;;;31.15;6.60;;;23.20;92.70;;;;;;5041630;28;20040;-53
2023/09/13 09:51:24;;;;;;;25.00;6.18;;;23.20;92.60;;;;;;5053685;28;20041;-53
2023/09/13 09:53:50;;;;;;;24.27;5.45;;;23.20;92.40;;;;;;5043747;28;20096;-54
2023/09/13 09:56:16;;;;;;;30.27;6.22;;;23.20;92.30;;;;;;5048983;28;20029;-53
2023/09/13 09:58:41;;;;;;;37.05;7.32;;;23.20;92.20;;;;;;5060862;28;20041;-53
2023/09/13 10:01:07;;;;;;;28.10;6.47;;;23.30;92.10;;;;;;5054714;28;20477;-53
2023/09/13 10:03:33;;;;;;;23.77;5.70;;;23.30;92.10;;;;;;5049445;28;20033;-53
2023/09/13 10:06:02;;;;;;;27.45;5.60;;;23.30;92.00;;;;;;5034233;28;20044;-53
2023/09/13 10:08:41;;;;;;;26.88;5.65;;;23.30;91.90;;;;;;5083101;28;20040;-53
2023/09/13 10:11:07;;;;;;;27.85;5.63;;;23.30;91.80;;;;;;5062464;28;20098;-53
2023/09/13 10:13:33;;;;;;;17.35;4.93;;;23.30;91.80;;;;;;5066429;28;20036;-53
2023/09/13 10:16:00;;;;;;;24.48;5.38;;;23.30;91.60;;;;;;5068712;28;20040;-53
2023/09/13 10:18:25;;;;;;;21.05;5.57;;;23.30;91.70;;;;;;5063125;28;20037;-53
2023/09/13 10:20:56;;;;;;;18.05;4.85;;;23.40;91.70;;;;;;5049085;28;20029;-53
2023/09/13 10:23:21;;;;;;;18.35;4.43;;;23.30;91.60;;;;;;5052669;28;20040;-52
2023/09/13 10:25:47;;;;;;;20.70;5.18;;;23.40;91.60;;;;;;5058671;28;20039;-53
2023/09/13 10:28:12;;;;;;;25.05;4.95;;;23.40;91.60;;;;;;5058763;28;20049;-53
2023/09/13 10:30:38;;;;;;;21.08;4.82;;;23.40;91.90;;;;;;5030233;28;20434;-53
2023/09/13 10:33:04;;;;;;;18.27;5.13;;;23.40;91.60;;;;;;5051988;28;20044;-53
2023/09/13 10:35:29;;;;;;;15.30;4.55;;;23.30;91.60;;;;;;5066335;28;20528;-53
2023/09/13 10:38:09;;;;;;;25.70;5.50;;;23.40;91.60;;;;;;5063470;28;20076;-53
2023/09/13 10:40:43;;;;;;;25.50;5.72;;;23.40;91.80;;;;;;5055063;28;20142;-53
2023/09/13 10:43:09;;;;;;;25.92;4.90;;;23.40;91.60;;;;;;5068642;28;20068;-53
2023/09/13 10:45:36;;;;;;;42.30;6.75;;;23.40;91.60;;;;;;5068466;28;20380;-53
2023/09/13 10:48:03;;;;;;;22.83;5.72;;;23.40;91.70;;;;;;5052382;28;21010;-53
2023/09/13 10:50:29;;;;;;;29.77;5.97;;;23.40;91.70;;;;;;5055887;28;20040;-53
2023/09/13 10:52:54;;;;;;;46.25;8.13;;;23.40;91.60;;;;;;5076121;28;20048;-53
2023/09/13 10:55:20;;;;;;;34.95;6.38;;;23.40;91.90;;;;;;5055680;28;20033;-53
2023/09/13 10:57:45;;;;;;;42.70;6.68;;;23.40;91.60;;;;;;5082867;28;20409;-53
2023/09/13 11:00:11;;;;;;;36.80;6.93;;;23.40;91.60;;;;;;5049576;28;20035;-53
2023/09/13 11:02:38;;;;;;;30.42;6.30;;;23.40;91.60;;;;;;5086508;28;20032;-53
2023/09/13 11:05:04;;;;;;;24.20;5.75;;;23.40;91.50;;;;;;5050923;28;20036;-53
2023/09/13 11:07:31;;;;;;;30.92;6.50;;;23.40;91.40;;;;;;5050082;28;20036;-53
2023/09/13 11:10:13;;;;;;;33.22;7.07;;;23.40;91.30;;;;;;5061920;28;20029;-53
2023/09/13 11:12:38;;;;;;;35.13;7.60;;;23.40;91.40;;;;;;5039552;28;20067;-53
2023/09/13 11:15:18;;;;;;;78.68;13.27;;;23.40;91.60;;;;;;5042798;28;20041;-53
2023/09/13 11:17:44;;;;;;;48.15;9.07;;;23.40;91.60;;;;;;5067112;28;20029;-53
2023/09/13 11:20:24;;;;;;;45.65;9.48;;;23.40;91.60;;;;;;5087352;28;20043;-53
2023/09/13 11:23:09;;;;;;;39.97;8.85;;;23.40;91.50;;;;;;5077156;28;20035;-53
2023/09/13 11:25:38;;;;;;;48.40;9.93;;;23.40;91.50;;;;;;5068281;28;20080;-53
2023/09/13 11:28:09;;;;;;;36.03;8.27;;;23.40;91.50;;;;;;5047968;28;20037;-53
2023/09/13 11:30:48;;;;;;;90.28;11.88;;;23.40;91.50;;;;;;5062947;28;20044;-52
2023/09/13 11:33:14;;;;;;;54.20;9.88;;;23.40;91.50;;;;;;5061498;28;20052;-53
2023/09/13 11:35:40;;;;;;;56.00;10.73;;;23.40;91.50;;;;;;5022371;28;20033;-53
2023/09/13 11:38:07;;;;;;;56.83;11.13;;;23.40;91.50;;;;;;5055038;28;20132;-54
2023/09/13 11:40:32;;;;;;;60.38;11.77;;;23.40;91.50;;;;;;5043482;28;20036;-53
2023/09/13 11:42:59;;;;;;;87.45;17.02;;;23.40;91.30;;;;;;5039462;28;20128;-54
2023/09/13 11:45:29;;;;;;;86.80;16.13;;;23.50;91.20;;;;;;5060110;28;20025;-54
2023/09/13 11:47:55;;;;;;;96.07;16.45;;;23.50;91.20;;;;;;5056754;28;20029;-54
2023/09/13 11:50:21;;;;;;;75.90;14.95;;;23.50;91.10;;;;;;5061360;28;20047;-54
2023/09/13 11:53:08;;;;;;;59.00;13.75;;;23.50;91.10;;;;;;5029702;28;20045;-54
2023/09/13 11:55:38;;;;;;;69.88;14.85;;;23.60;91.10;;;;;;5084253;28;20060;-54
2023/09/13 11:58:03;;;;;;;77.05;14.45;;;23.60;91.00;;;;;;5048982;28;20072;-53
2023/09/13 12:00:29;;;;;;;91.53;14.98;;;23.60;90.90;;;;;;5067656;28;20039;-54
2023/09/13 12:02:56;;;;;;;75.65;14.45;;;23.70;90.90;;;;;;5063395;28;20101;-53
2023/09/13 12:05:24;;;;;;;77.63;14.23;;;23.70;90.80;;;;;;5045678;28;20037;-57
2023/09/13 12:07:50;;;;;;;56.80;12.88;;;23.70;90.70;;;;;;5048290;28;20118;-57
2023/09/13 12:10:15;;;;;;;181.60;23.80;;;23.80;90.60;;;;;;5063032;28;21195;-57
2023/09/13 12:12:42;;;;;;;96.50;15.05;;;23.70;90.60;;;;;;5067222;28;20483;-56
2023/09/13 12:15:13;;;;;;;67.15;12.57;;;23.80;90.50;;;;;;5082446;28;20049;-57
2023/09/13 12:17:39;;;;;;;64.68;12.93;;;23.90;90.50;;;;;;5046900;28;20041;-57
2023/09/13 12:20:10;;;;;;;59.78;13.93;;;23.90;90.50;;;;;;5075112;28;20119;-57
2023/09/13 12:22:40;;;;;;;80.78;15.48;;;23.90;90.40;;;;;;5083018;28;20036;-57
2023/09/13 12:25:09;;;;;;;92.20;16.48;;;24.00;90.40;;;;;;5063122;28;20040;-57
2023/09/13 12:27:35;;;;;;;63.67;14.82;;;24.00;90.40;;;;;;5077876;28;20042;-57
2023/09/13 12:30:05;;;;;;;97.50;17.95;;;24.00;90.30;;;;;;5078799;28;20033;-57
2023/09/13 12:32:30;;;;;;;84.18;15.82;;;24.10;90.20;;;;;;5081303;28;20044;-56
2023/09/13 12:34:56;;;;;;;84.30;16.05;;;24.10;90.20;;;;;;5056733;28;20060;-57